sensor_id;sensor_type;location;lat;lon;timestamp;P1;durP1;ratioP1;P2;durP2;ratioP2
12603;SDS011;6367;52.508;13.284;2023-05-14T00:00:43;6.60;;;6.10;;
12603;SDS011;6367;52.508;13.284;2023-05-14T00:03:08;6.20;;;5.70;;
12603;SDS011;6367;52.508;13.284;2023-05-14T00:05:34;6.40;;;5.90;;
12603;SDS011;6367;52.508;13.284;2023-05-14T00:08:00;5.87;;;5.37;;
12603;SDS011;6367;52.508;13.284;2023-05-14T00:10:26;6.37;;;5.30;;
12603;SDS011;6367;52.508;13.284;2023-05-14T00:12:52;6.00;;;5.40;;
12603;SDS011;6367;52.508;13.284;2023-05-14T00:15:18;6.00;;;5.57;;
12603;SDS011;6367;52.508;13.284;2023-05-14T00:17:43;6.30;;;5.40;;
12603;SDS011;6367;52.508;13.284;2023-05-14T00:20:09;6.50;;;5.90;;
12603;SDS011;6367;52.508;13.284;2023-05-14T00:22:36;5.63;;;5.13;;
12603;SDS011;6367;52.508;13.284;2023-05-14T00:25:03;6.70;;;5.93;;
12603;SDS011;6367;52.508;13.284;2023-05-14T00:27:30;7.93;;;6.83;;
12603;SDS011;6367;52.508;13.284;2023-05-14T00:29:56;7.80;;;7.00;;
12603;SDS011;6367;52.508;13.284;2023-05-14T00:32:22;8.03;;;7.17;;
12603;SDS011;6367;52.508;13.284;2023-05-14T00:34:48;8.10;;;7.30;;
12603;SDS011;6367;52.508;13.284;2023-05-14T00:37:14;8.53;;;7.60;;
12603;SDS011;6367;52.508;13.284;2023-05-14T00:39:39;10.17;;;9.00;;
12603;SDS011;6367;52.508;13.284;2023-05-14T00:42:05;14.90;;;8.70;;
12603;SDS011;6367;52.508;13.284;2023-05-14T00:44:31;10.00;;;9.17;;
12603;SDS011;6367;52.508;13.284;2023-05-14T00:46:57;10.77;;;9.37;;
12603;SDS011;6367;52.508;13.284;2023-05-14T00:49:24;10.43;;;8.57;;
12603;SDS011;6367;52.508;13.284;2023-05-14T00:51:50;10.70;;;9.50;;
12603;SDS011;6367;52.508;13.284;2023-05-14T00:54:17;12.80;;;9.00;;
12603;SDS011;6367;52.508;13.284;2023-05-14T00:56:44;10.77;;;9.73;;
12603;SDS011;6367;52.508;13.284;2023-05-14T00:59:11;10.33;;;9.37;;
12603;SDS011;6367;52.508;13.284;2023-05-14T01:01:37;10.70;;;9.60;;
12603;SDS011;6367;52.508;13.284;2023-05-14T01:04:03;9.77;;;8.87;;
12603;SDS011;6367;52.508;13.284;2023-05-14T01:11:47;10.50;;;9.40;;
12603;SDS011;6367;52.508;13.284;2023-05-14T01:17:29;10.60;;;9.47;;
12603;SDS011;6367;52.508;13.284;2023-05-14T01:19:57;9.77;;;8.87;;
12603;SDS011;6367;52.508;13.284;2023-05-14T01:22:24;9.90;;;9.00;;
12603;SDS011;6367;52.508;13.284;2023-05-14T01:24:50;10.07;;;9.17;;
12603;SDS011;6367;52.508;13.284;2023-05-14T01:27:29;10.03;;;9.13;;
12603;SDS011;6367;52.508;13.284;2023-05-14T01:30:08;9.40;;;8.43;;
12603;SDS011;6367;52.508;13.284;2023-05-14T01:32:53;10.07;;;9.07;;
12603;SDS011;6367;52.508;13.284;2023-05-14T01:35:22;11.03;;;9.40;;
12603;SDS011;6367;52.508;13.284;2023-05-14T01:37:54;9.63;;;8.73;;
12603;SDS011;6367;52.508;13.284;2023-05-14T01:40:22;10.00;;;9.00;;
12603;SDS011;6367;52.508;13.284;2023-05-14T01:42:49;9.27;;;8.57;;
12603;SDS011;6367;52.508;13.284;2023-05-14T01:45:21;9.83;;;8.93;;
12603;SDS011;6367;52.508;13.284;2023-05-14T01:47:47;11.03;;;9.83;;
12603;SDS011;6367;52.508;13.284;2023-05-14T01:50:13;10.00;;;9.10;;
12603;SDS011;6367;52.508;13.284;2023-05-14T01:52:39;9.43;;;8.70;;
12603;SDS011;6367;52.508;13.284;2023-05-14T01:55:05;10.10;;;9.10;;
12603;SDS011;6367;52.508;13.284;2023-05-14T01:57:31;10.77;;;9.77;;
12603;SDS011;6367;52.508;13.284;2023-05-14T01:59:57;9.50;;;8.63;;
12603;SDS011;6367;52.508;13.284;2023-05-14T02:02:23;9.67;;;8.77;;
12603;SDS011;6367;52.508;13.284;2023-05-14T02:04:48;9.10;;;8.30;;
12603;SDS011;6367;52.508;13.284;2023-05-14T02:07:14;10.10;;;9.20;;
12603;SDS011;6367;52.508;13.284;2023-05-14T02:09:39;10.37;;;9.37;;
12603;SDS011;6367;52.508;13.284;2023-05-14T02:12:06;12.80;;;9.83;;
12603;SDS011;6367;52.508;13.284;2023-05-14T02:14:32;9.70;;;8.80;;
12603;SDS011;6367;52.508;13.284;2023-05-14T02:16:58;10.40;;;9.40;;
12603;SDS011;6367;52.508;13.284;2023-05-14T02:19:24;9.27;;;8.30;;
12603;SDS011;6367;52.508;13.284;2023-05-14T02:21:49;9.37;;;8.47;;
12603;SDS011;6367;52.508;13.284;2023-05-14T02:24:15;9.30;;;8.50;;
12603;SDS011;6367;52.508;13.284;2023-05-14T02:26:41;8.67;;;7.80;;
12603;SDS011;6367;52.508;13.284;2023-05-14T02:29:07;9.70;;;8.80;;
12603;SDS011;6367;52.508;13.284;2023-05-14T02:31:32;9.63;;;8.73;;
12603;SDS011;6367;52.508;13.284;2023-05-14T02:33:59;8.70;;;7.93;;
12603;SDS011;6367;52.508;13.284;2023-05-14T02:36:25;9.40;;;8.40;;
12603;SDS011;6367;52.508;13.284;2023-05-14T02:38:51;11.50;;;8.90;;
12603;SDS011;6367;52.508;13.284;2023-05-14T02:41:17;10.13;;;9.13;;
12603;SDS011;6367;52.508;13.284;2023-05-14T02:43:42;10.13;;;8.80;;
12603;SDS011;6367;52.508;13.284;2023-05-14T02:46:08;9.53;;;8.63;;
12603;SDS011;6367;52.508;13.284;2023-05-14T02:48:34;9.03;;;8.13;;
12603;SDS011;6367;52.508;13.284;2023-05-14T02:50:59;8.30;;;7.57;;
12603;SDS011;6367;52.508;13.284;2023-05-14T02:53:25;9.27;;;8.43;;
12603;SDS011;6367;52.508;13.284;2023-05-14T02:55:50;8.03;;;7.33;;
12603;SDS011;6367;52.508;13.284;2023-05-14T02:58:16;8.00;;;7.30;;
12603;SDS011;6367;52.508;13.284;2023-05-14T03:00:43;8.83;;;7.93;;
12603;SDS011;6367;52.508;13.284;2023-05-14T03:03:08;7.90;;;7.03;;
12603;SDS011;6367;52.508;13.284;2023-05-14T03:05:34;8.60;;;7.80;;
12603;SDS011;6367;52.508;13.284;2023-05-14T03:08:00;7.87;;;6.63;;
12603;SDS011;6367;52.508;13.284;2023-05-14T03:10:25;7.27;;;6.53;;
12603;SDS011;6367;52.508;13.284;2023-05-14T03:12:51;7.23;;;6.53;;
12603;SDS011;6367;52.508;13.284;2023-05-14T03:15:17;6.30;;;5.80;;
12603;SDS011;6367;52.508;13.284;2023-05-14T03:17:42;6.80;;;6.10;;
12603;SDS011;6367;52.508;13.284;2023-05-14T03:20:08;6.93;;;6.33;;
12603;SDS011;6367;52.508;13.284;2023-05-14T03:22:34;5.60;;;5.10;;
12603;SDS011;6367;52.508;13.284;2023-05-14T03:25:00;8.80;;;5.07;;
12603;SDS011;6367;52.508;13.284;2023-05-14T03:27:26;7.20;;;6.07;;
12603;SDS011;6367;52.508;13.284;2023-05-14T03:29:51;6.07;;;5.47;;
12603;SDS011;6367;52.508;13.284;2023-05-14T03:32:17;7.23;;;5.83;;
12603;SDS011;6367;52.508;13.284;2023-05-14T03:34:43;7.23;;;6.50;;
12603;SDS011;6367;52.508;13.284;2023-05-14T03:37:09;6.47;;;5.87;;
12603;SDS011;6367;52.508;13.284;2023-05-14T03:39:35;6.40;;;5.80;;
12603;SDS011;6367;52.508;13.284;2023-05-14T03:42:00;7.90;;;6.17;;
12603;SDS011;6367;52.508;13.284;2023-05-14T03:44:26;6.73;;;5.90;;
12603;SDS011;6367;52.508;13.284;2023-05-14T03:46:52;6.40;;;5.80;;
12603;SDS011;6367;52.508;13.284;2023-05-14T03:49:17;6.70;;;6.00;;
12603;SDS011;6367;52.508;13.284;2023-05-14T03:51:43;7.17;;;5.57;;
12603;SDS011;6367;52.508;13.284;2023-05-14T03:54:09;6.30;;;5.70;;
12603;SDS011;6367;52.508;13.284;2023-05-14T03:56:35;6.43;;;5.80;;
12603;SDS011;6367;52.508;13.284;2023-05-14T03:59:00;6.23;;;5.20;;
12603;SDS011;6367;52.508;13.284;2023-05-14T04:01:26;5.80;;;5.30;;
12603;SDS011;6367;52.508;13.284;2023-05-14T04:03:52;6.03;;;5.53;;
12603;SDS011;6367;52.508;13.284;2023-05-14T04:06:18;7.30;;;5.40;;
12603;SDS011;6367;52.508;13.284;2023-05-14T04:08:43;6.03;;;5.40;;
12603;SDS011;6367;52.508;13.284;2023-05-14T04:11:09;5.30;;;4.80;;
12603;SDS011;6367;52.508;13.284;2023-05-14T04:13:34;7.50;;;6.40;;
12603;SDS011;6367;52.508;13.284;2023-05-14T04:16:00;8.87;;;5.33;;
12603;SDS011;6367;52.508;13.284;2023-05-14T04:18:26;6.67;;;5.30;;
12603;SDS011;6367;52.508;13.284;2023-05-14T04:20:51;5.33;;;4.83;;
12603;SDS011;6367;52.508;13.284;2023-05-14T04:23:17;4.77;;;4.37;;
12603;SDS011;6367;52.508;13.284;2023-05-14T04:25:42;5.80;;;5.30;;
12603;SDS011;6367;52.508;13.284;2023-05-14T04:28:08;8.67;;;5.20;;
12603;SDS011;6367;52.508;13.284;2023-05-14T04:30:34;5.87;;;5.37;;
12603;SDS011;6367;52.508;13.284;2023-05-14T04:33:00;7.33;;;5.10;;
12603;SDS011;6367;52.508;13.284;2023-05-14T04:35:26;4.73;;;4.37;;
12603;SDS011;6367;52.508;13.284;2023-05-14T04:37:51;6.50;;;4.90;;
12603;SDS011;6367;52.508;13.284;2023-05-14T04:40:17;5.20;;;4.70;;
12603;SDS011;6367;52.508;13.284;2023-05-14T04:42:43;5.60;;;5.10;;
12603;SDS011;6367;52.508;13.284;2023-05-14T04:45:09;6.13;;;5.23;;
12603;SDS011;6367;52.508;13.284;2023-05-14T04:47:35;6.07;;;5.10;;
12603;SDS011;6367;52.508;13.284;2023-05-14T04:50:01;5.70;;;5.17;;
12603;SDS011;6367;52.508;13.284;2023-05-14T04:52:26;7.10;;;5.23;;
12603;SDS011;6367;52.508;13.284;2023-05-14T04:54:52;9.67;;;5.50;;
12603;SDS011;6367;52.508;13.284;2023-05-14T04:57:18;5.50;;;4.90;;
12603;SDS011;6367;52.508;13.284;2023-05-14T04:59:43;5.70;;;5.20;;
12603;SDS011;6367;52.508;13.284;2023-05-14T05:02:09;6.33;;;5.40;;
12603;SDS011;6367;52.508;13.284;2023-05-14T05:04:35;6.50;;;5.87;;
12603;SDS011;6367;52.508;13.284;2023-05-14T05:07:00;5.80;;;5.30;;
12603;SDS011;6367;52.508;13.284;2023-05-14T05:09:26;8.10;;;5.63;;
12603;SDS011;6367;52.508;13.284;2023-05-14T05:11:51;5.80;;;5.17;;
12603;SDS011;6367;52.508;13.284;2023-05-14T05:14:17;5.97;;;5.47;;
12603;SDS011;6367;52.508;13.284;2023-05-14T05:16:43;5.70;;;5.10;;
12603;SDS011;6367;52.508;13.284;2023-05-14T05:19:09;7.00;;;6.30;;
12603;SDS011;6367;52.508;13.284;2023-05-14T05:21:34;7.20;;;5.73;;
12603;SDS011;6367;52.508;13.284;2023-05-14T05:24:00;6.17;;;5.57;;
12603;SDS011;6367;52.508;13.284;2023-05-14T05:26:26;9.30;;;6.27;;
12603;SDS011;6367;52.508;13.284;2023-05-14T05:28:52;7.10;;;5.57;;
12603;SDS011;6367;52.508;13.284;2023-05-14T05:31:18;6.20;;;5.60;;
12603;SDS011;6367;52.508;13.284;2023-05-14T05:33:43;6.63;;;5.40;;
12603;SDS011;6367;52.508;13.284;2023-05-14T05:36:09;6.23;;;5.60;;
12603;SDS011;6367;52.508;13.284;2023-05-14T05:38:35;5.67;;;5.27;;
12603;SDS011;6367;52.508;13.284;2023-05-14T05:41:00;6.23;;;5.60;;
12603;SDS011;6367;52.508;13.284;2023-05-14T05:43:26;11.10;;;6.30;;
12603;SDS011;6367;52.508;13.284;2023-05-14T05:45:52;8.90;;;6.73;;
12603;SDS011;6367;52.508;13.284;2023-05-14T05:48:18;7.17;;;5.27;;
12603;SDS011;6367;52.508;13.284;2023-05-14T05:50:45;6.93;;;6.20;;
12603;SDS011;6367;52.508;13.284;2023-05-14T05:53:13;7.97;;;5.60;;
12603;SDS011;6367;52.508;13.284;2023-05-14T05:55:40;7.80;;;5.83;;
12603;SDS011;6367;52.508;13.284;2023-05-14T05:58:06;7.07;;;6.33;;
12603;SDS011;6367;52.508;13.284;2023-05-14T06:00:32;9.40;;;6.40;;
12603;SDS011;6367;52.508;13.284;2023-05-14T06:02:57;7.33;;;5.90;;
12603;SDS011;6367;52.508;13.284;2023-05-14T06:05:23;6.60;;;5.23;;
12603;SDS011;6367;52.508;13.284;2023-05-14T06:07:49;6.13;;;5.53;;
12603;SDS011;6367;52.508;13.284;2023-05-14T06:10:15;8.67;;;6.50;;
12603;SDS011;6367;52.508;13.284;2023-05-14T06:12:41;7.70;;;6.07;;
12603;SDS011;6367;52.508;13.284;2023-05-14T06:15:07;6.97;;;5.90;;
12603;SDS011;6367;52.508;13.284;2023-05-14T06:17:33;10.57;;;6.90;;
12603;SDS011;6367;52.508;13.284;2023-05-14T06:19:58;6.70;;;6.10;;
12603;SDS011;6367;52.508;13.284;2023-05-14T06:22:24;6.83;;;5.70;;
12603;SDS011;6367;52.508;13.284;2023-05-14T06:24:50;6.03;;;5.23;;
12603;SDS011;6367;52.508;13.284;2023-05-14T06:27:15;6.80;;;6.17;;
12603;SDS011;6367;52.508;13.284;2023-05-14T06:29:41;6.50;;;5.73;;
12603;SDS011;6367;52.508;13.284;2023-05-14T06:32:06;6.23;;;5.60;;
12603;SDS011;6367;52.508;13.284;2023-05-14T06:34:33;5.83;;;5.23;;
12603;SDS011;6367;52.508;13.284;2023-05-14T06:36:58;5.90;;;5.10;;
12603;SDS011;6367;52.508;13.284;2023-05-14T06:39:26;4.93;;;4.53;;
12603;SDS011;6367;52.508;13.284;2023-05-14T06:41:52;5.53;;;4.97;;
12603;SDS011;6367;52.508;13.284;2023-05-14T06:44:18;5.87;;;4.90;;
12603;SDS011;6367;52.508;13.284;2023-05-14T06:46:43;5.50;;;5.00;;
12603;SDS011;6367;52.508;13.284;2023-05-14T06:49:09;7.67;;;5.67;;
12603;SDS011;6367;52.508;13.284;2023-05-14T06:51:34;5.83;;;5.07;;
12603;SDS011;6367;52.508;13.284;2023-05-14T06:54:00;5.63;;;5.03;;
12603;SDS011;6367;52.508;13.284;2023-05-14T06:56:26;7.17;;;5.77;;
12603;SDS011;6367;52.508;13.284;2023-05-14T06:58:51;5.93;;;5.33;;
12603;SDS011;6367;52.508;13.284;2023-05-14T07:01:17;5.40;;;4.90;;
12603;SDS011;6367;52.508;13.284;2023-05-14T07:03:43;5.77;;;5.27;;
12603;SDS011;6367;52.508;13.284;2023-05-14T07:06:08;5.63;;;5.13;;
12603;SDS011;6367;52.508;13.284;2023-05-14T07:08:34;7.13;;;5.63;;
12603;SDS011;6367;52.508;13.284;2023-05-14T07:11:00;5.33;;;4.83;;
12603;SDS011;6367;52.508;13.284;2023-05-14T07:13:25;7.23;;;5.20;;
12603;SDS011;6367;52.508;13.284;2023-05-14T07:15:52;5.80;;;4.77;;
12603;SDS011;6367;52.508;13.284;2023-05-14T07:18:20;5.03;;;4.60;;
12603;SDS011;6367;52.508;13.284;2023-05-14T07:20:46;7.83;;;5.10;;
12603;SDS011;6367;52.508;13.284;2023-05-14T07:23:12;10.57;;;5.27;;
12603;SDS011;6367;52.508;13.284;2023-05-14T07:25:37;7.20;;;4.90;;
12603;SDS011;6367;52.508;13.284;2023-05-14T07:28:03;5.70;;;5.10;;
12603;SDS011;6367;52.508;13.284;2023-05-14T07:30:29;8.10;;;5.33;;
12603;SDS011;6367;52.508;13.284;2023-05-14T07:32:54;11.20;;;6.10;;
12603;SDS011;6367;52.508;13.284;2023-05-14T07:35:20;7.13;;;5.30;;
12603;SDS011;6367;52.508;13.284;2023-05-14T07:37:46;7.70;;;4.90;;
12603;SDS011;6367;52.508;13.284;2023-05-14T07:40:12;5.63;;;5.13;;
12603;SDS011;6367;52.508;13.284;2023-05-14T07:42:37;5.00;;;4.60;;
12603;SDS011;6367;52.508;13.284;2023-05-14T07:45:03;4.67;;;4.27;;
12603;SDS011;6367;52.508;13.284;2023-05-14T07:47:29;5.20;;;4.73;;
12603;SDS011;6367;52.508;13.284;2023-05-14T07:49:55;5.30;;;4.30;;
12603;SDS011;6367;52.508;13.284;2023-05-14T07:52:21;7.10;;;5.00;;
12603;SDS011;6367;52.508;13.284;2023-05-14T07:54:49;5.17;;;4.67;;
12603;SDS011;6367;52.508;13.284;2023-05-14T07:57:15;5.20;;;4.73;;
12603;SDS011;6367;52.508;13.284;2023-05-14T07:59:41;4.77;;;4.40;;
12603;SDS011;6367;52.508;13.284;2023-05-14T08:02:07;4.77;;;4.33;;
12603;SDS011;6367;52.508;13.284;2023-05-14T08:04:36;5.43;;;4.93;;
12603;SDS011;6367;52.508;13.284;2023-05-14T08:07:02;5.00;;;4.60;;
12603;SDS011;6367;52.508;13.284;2023-05-14T08:09:28;6.00;;;4.50;;
12603;SDS011;6367;52.508;13.284;2023-05-14T08:11:54;5.20;;;4.70;;
12603;SDS011;6367;52.508;13.284;2023-05-14T08:14:19;6.97;;;4.70;;
12603;SDS011;6367;52.508;13.284;2023-05-14T08:16:45;5.10;;;4.40;;
12603;SDS011;6367;52.508;13.284;2023-05-14T08:19:11;4.93;;;4.30;;
12603;SDS011;6367;52.508;13.284;2023-05-14T08:21:37;5.30;;;4.80;;
12603;SDS011;6367;52.508;13.284;2023-05-14T08:24:03;4.00;;;3.60;;
12603;SDS011;6367;52.508;13.284;2023-05-14T08:26:29;4.20;;;3.90;;
12603;SDS011;6367;52.508;13.284;2023-05-14T08:28:54;3.90;;;3.50;;
12603;SDS011;6367;52.508;13.284;2023-05-14T08:31:20;4.70;;;3.80;;
12603;SDS011;6367;52.508;13.284;2023-05-14T08:33:45;4.60;;;4.10;;
12603;SDS011;6367;52.508;13.284;2023-05-14T08:36:12;6.83;;;4.03;;
12603;SDS011;6367;52.508;13.284;2023-05-14T08:38:38;5.17;;;4.03;;
12603;SDS011;6367;52.508;13.284;2023-05-14T08:41:04;3.83;;;3.33;;
12603;SDS011;6367;52.508;13.284;2023-05-14T08:46:20;4.80;;;3.70;;
12603;SDS011;6367;52.508;13.284;2023-05-14T08:48:50;4.40;;;4.00;;
12603;SDS011;6367;52.508;13.284;2023-05-14T08:51:24;5.20;;;3.80;;
12603;SDS011;6367;52.508;13.284;2023-05-14T08:53:50;4.43;;;4.07;;
12603;SDS011;6367;52.508;13.284;2023-05-14T08:56:16;5.87;;;4.43;;
12603;SDS011;6367;52.508;13.284;2023-05-14T08:58:43;4.20;;;3.83;;
12603;SDS011;6367;52.508;13.284;2023-05-14T09:01:09;3.97;;;3.67;;
12603;SDS011;6367;52.508;13.284;2023-05-14T09:03:34;5.77;;;4.40;;
12603;SDS011;6367;52.508;13.284;2023-05-14T09:06:00;4.67;;;4.27;;
12603;SDS011;6367;52.508;13.284;2023-05-14T09:08:28;7.00;;;3.97;;
12603;SDS011;6367;52.508;13.284;2023-05-14T09:10:53;4.27;;;3.87;;
12603;SDS011;6367;52.508;13.284;2023-05-14T09:13:19;4.17;;;3.50;;
12603;SDS011;6367;52.508;13.284;2023-05-14T09:15:45;4.23;;;3.50;;
12603;SDS011;6367;52.508;13.284;2023-05-14T09:18:12;4.33;;;3.97;;
12603;SDS011;6367;52.508;13.284;2023-05-14T09:20:37;3.93;;;3.60;;
12603;SDS011;6367;52.508;13.284;2023-05-14T09:23:03;3.93;;;3.47;;
12603;SDS011;6367;52.508;13.284;2023-05-14T09:25:32;4.43;;;3.77;;
12603;SDS011;6367;52.508;13.284;2023-05-14T09:27:58;4.00;;;3.37;;
12603;SDS011;6367;52.508;13.284;2023-05-14T09:30:24;4.00;;;3.57;;
12603;SDS011;6367;52.508;13.284;2023-05-14T09:32:52;4.30;;;3.70;;
12603;SDS011;6367;52.508;13.284;2023-05-14T09:35:21;4.50;;;4.10;;
12603;SDS011;6367;52.508;13.284;2023-05-14T09:37:48;4.03;;;3.40;;
12603;SDS011;6367;52.508;13.284;2023-05-14T09:40:18;3.77;;;3.47;;
12603;SDS011;6367;52.508;13.284;2023-05-14T09:42:45;8.77;;;3.83;;
12603;SDS011;6367;52.508;13.284;2023-05-14T09:45:13;4.13;;;3.60;;
12603;SDS011;6367;52.508;13.284;2023-05-14T09:47:39;3.40;;;3.10;;
12603;SDS011;6367;52.508;13.284;2023-05-14T09:50:05;3.90;;;3.50;;
12603;SDS011;6367;52.508;13.284;2023-05-14T09:52:31;4.35;;;3.80;;
12603;SDS011;6367;52.508;13.284;2023-05-14T09:54:58;4.40;;;3.80;;
12603;SDS011;6367;52.508;13.284;2023-05-14T09:57:24;4.50;;;3.37;;
12603;SDS011;6367;52.508;13.284;2023-05-14T09:59:50;6.30;;;3.50;;
12603;SDS011;6367;52.508;13.284;2023-05-14T10:02:29;3.40;;;3.10;;
12603;SDS011;6367;52.508;13.284;2023-05-14T10:05:01;5.50;;;3.60;;
12603;SDS011;6367;52.508;13.284;2023-05-14T10:07:30;4.33;;;3.50;;
12603;SDS011;6367;52.508;13.284;2023-05-14T10:10:01;6.63;;;3.70;;
12603;SDS011;6367;52.508;13.284;2023-05-14T10:12:35;4.03;;;3.63;;
12603;SDS011;6367;52.508;13.284;2023-05-14T10:15:03;8.53;;;4.30;;
12603;SDS011;6367;52.508;13.284;2023-05-14T10:17:36;4.00;;;3.70;;
12603;SDS011;6367;52.508;13.284;2023-05-14T10:20:05;4.10;;;3.73;;
12603;SDS011;6367;52.508;13.284;2023-05-14T10:22:34;6.13;;;3.83;;
12603;SDS011;6367;52.508;13.284;2023-05-14T10:24:59;3.83;;;3.53;;
12603;SDS011;6367;52.508;13.284;2023-05-14T10:27:27;5.07;;;3.80;;
12603;SDS011;6367;52.508;13.284;2023-05-14T10:29:53;6.40;;;3.93;;
12603;SDS011;6367;52.508;13.284;2023-05-14T10:32:20;4.10;;;3.70;;
12603;SDS011;6367;52.508;13.284;2023-05-14T10:34:48;7.37;;;4.00;;
12603;SDS011;6367;52.508;13.284;2023-05-14T10:37:21;3.63;;;3.30;;
12603;SDS011;6367;52.508;13.284;2023-05-14T10:42:27;4.60;;;3.93;;
12603;SDS011;6367;52.508;13.284;2023-05-14T10:44:59;4.60;;;4.10;;
12603;SDS011;6367;52.508;13.284;2023-05-14T10:47:26;5.47;;;3.27;;
12603;SDS011;6367;52.508;13.284;2023-05-14T10:49:54;5.93;;;4.07;;
12603;SDS011;6367;52.508;13.284;2023-05-14T10:52:21;6.17;;;3.67;;
12603;SDS011;6367;52.508;13.284;2023-05-14T10:54:48;4.60;;;3.43;;
12603;SDS011;6367;52.508;13.284;2023-05-14T10:57:16;4.40;;;4.00;;
12603;SDS011;6367;52.508;13.284;2023-05-14T10:59:43;5.47;;;4.93;;
12603;SDS011;6367;52.508;13.284;2023-05-14T11:02:25;4.23;;;3.87;;
12603;SDS011;6367;52.508;13.284;2023-05-14T11:07:37;7.10;;;4.00;;
12603;SDS011;6367;52.508;13.284;2023-05-14T11:10:07;4.93;;;3.70;;
12603;SDS011;6367;52.508;13.284;2023-05-14T11:12:35;5.43;;;4.00;;
12603;SDS011;6367;52.508;13.284;2023-05-14T11:15:03;6.53;;;3.97;;
12603;SDS011;6367;52.508;13.284;2023-05-14T11:17:36;4.53;;;3.70;;
12603;SDS011;6367;52.508;13.284;2023-05-14T11:20:04;5.80;;;3.93;;
12603;SDS011;6367;52.508;13.284;2023-05-14T11:22:31;4.33;;;3.93;;
12603;SDS011;6367;52.508;13.284;2023-05-14T11:24:57;4.10;;;3.70;;
12603;SDS011;6367;52.508;13.284;2023-05-14T11:27:23;3.93;;;3.40;;
12603;SDS011;6367;52.508;13.284;2023-05-14T11:29:50;4.60;;;3.93;;
12603;SDS011;6367;52.508;13.284;2023-05-14T11:32:16;6.03;;;3.60;;
12603;SDS011;6367;52.508;13.284;2023-05-14T11:34:43;4.20;;;3.80;;
12603;SDS011;6367;52.508;13.284;2023-05-14T11:37:10;4.40;;;3.70;;
12603;SDS011;6367;52.508;13.284;2023-05-14T11:39:37;4.90;;;3.83;;
12603;SDS011;6367;52.508;13.284;2023-05-14T11:42:09;3.83;;;3.47;;
12603;SDS011;6367;52.508;13.284;2023-05-14T11:44:39;4.53;;;4.10;;
12603;SDS011;6367;52.508;13.284;2023-05-14T11:47:08;6.97;;;5.17;;
12603;SDS011;6367;52.508;13.284;2023-05-14T11:49:34;5.68;;;4.18;;
12603;SDS011;6367;52.508;13.284;2023-05-14T11:52:02;4.40;;;4.00;;
12603;SDS011;6367;52.508;13.284;2023-05-14T11:54:30;4.77;;;4.33;;
12603;SDS011;6367;52.508;13.284;2023-05-14T11:56:57;6.90;;;5.03;;
12603;SDS011;6367;52.508;13.284;2023-05-14T11:59:25;8.63;;;6.20;;
12603;SDS011;6367;52.508;13.284;2023-05-14T12:01:52;8.23;;;5.43;;
12603;SDS011;6367;52.508;13.284;2023-05-14T12:04:19;7.60;;;5.50;;
12603;SDS011;6367;52.508;13.284;2023-05-14T12:06:52;13.37;;;8.57;;
12603;SDS011;6367;52.508;13.284;2023-05-14T12:09:19;8.30;;;6.73;;
12603;SDS011;6367;52.508;13.284;2023-05-14T12:11:45;9.23;;;8.07;;
12603;SDS011;6367;52.508;13.284;2023-05-14T12:14:15;13.00;;;7.80;;
12603;SDS011;6367;52.508;13.284;2023-05-14T12:16:42;9.63;;;8.20;;
12603;SDS011;6367;52.508;13.284;2023-05-14T12:19:09;7.87;;;6.63;;
12603;SDS011;6367;52.508;13.284;2023-05-14T12:21:37;6.30;;;5.60;;
12603;SDS011;6367;52.508;13.284;2023-05-14T12:24:03;7.60;;;5.30;;
12603;SDS011;6367;52.508;13.284;2023-05-14T12:26:32;9.77;;;6.77;;
12603;SDS011;6367;52.508;13.284;2023-05-14T12:28:59;6.87;;;6.03;;
12603;SDS011;6367;52.508;13.284;2023-05-14T12:31:34;6.50;;;5.90;;
12603;SDS011;6367;52.508;13.284;2023-05-14T12:34:01;5.17;;;4.67;;
12603;SDS011;6367;52.508;13.284;2023-05-14T12:36:28;10.07;;;5.43;;
12603;SDS011;6367;52.508;13.284;2023-05-14T12:38:59;7.77;;;6.17;;
12603;SDS011;6367;52.508;13.284;2023-05-14T12:41:26;5.40;;;4.70;;
12603;SDS011;6367;52.508;13.284;2023-05-14T12:43:52;5.17;;;4.73;;
12603;SDS011;6367;52.508;13.284;2023-05-14T12:46:18;5.53;;;5.13;;
12603;SDS011;6367;52.508;13.284;2023-05-14T12:48:44;5.50;;;5.00;;
12603;SDS011;6367;52.508;13.284;2023-05-14T12:51:10;8.53;;;5.80;;
12603;SDS011;6367;52.508;13.284;2023-05-14T12:53:36;5.60;;;5.10;;
12603;SDS011;6367;52.508;13.284;2023-05-14T12:56:01;8.83;;;4.27;;
12603;SDS011;6367;52.508;13.284;2023-05-14T12:58:27;5.60;;;4.30;;
12603;SDS011;6367;52.508;13.284;2023-05-14T13:00:53;4.83;;;4.33;;
12603;SDS011;6367;52.508;13.284;2023-05-14T13:03:18;5.93;;;5.43;;
12603;SDS011;6367;52.508;13.284;2023-05-14T13:05:45;6.13;;;4.53;;
12603;SDS011;6367;52.508;13.284;2023-05-14T13:08:10;5.63;;;4.80;;
12603;SDS011;6367;52.508;13.284;2023-05-14T13:10:38;4.80;;;4.30;;
12603;SDS011;6367;52.508;13.284;2023-05-14T13:13:04;5.43;;;4.00;;
12603;SDS011;6367;52.508;13.284;2023-05-14T13:15:30;6.80;;;4.20;;
12603;SDS011;6367;52.508;13.284;2023-05-14T13:17:57;4.43;;;4.03;;
12603;SDS011;6367;52.508;13.284;2023-05-14T13:20:23;4.50;;;4.10;;
12603;SDS011;6367;52.508;13.284;2023-05-14T13:22:51;5.73;;;4.97;;
12603;SDS011;6367;52.508;13.284;2023-05-14T13:25:16;5.27;;;4.43;;
12603;SDS011;6367;52.508;13.284;2023-05-14T13:27:42;4.73;;;4.03;;
12603;SDS011;6367;52.508;13.284;2023-05-14T13:30:08;4.73;;;4.20;;
12603;SDS011;6367;52.508;13.284;2023-05-14T13:32:34;4.00;;;3.70;;
12603;SDS011;6367;52.508;13.284;2023-05-14T13:35:00;4.43;;;4.03;;
12603;SDS011;6367;52.508;13.284;2023-05-14T13:37:25;4.13;;;3.83;;
12603;SDS011;6367;52.508;13.284;2023-05-14T13:39:51;3.70;;;3.40;;
12603;SDS011;6367;52.508;13.284;2023-05-14T13:42:16;4.40;;;4.00;;
12603;SDS011;6367;52.508;13.284;2023-05-14T13:44:42;5.53;;;4.70;;
12603;SDS011;6367;52.508;13.284;2023-05-14T13:47:07;4.47;;;3.53;;
12603;SDS011;6367;52.508;13.284;2023-05-14T13:49:33;4.73;;;4.23;;
12603;SDS011;6367;52.508;13.284;2023-05-14T13:51:59;5.60;;;3.83;;
12603;SDS011;6367;52.508;13.284;2023-05-14T13:54:24;4.03;;;3.73;;
12603;SDS011;6367;52.508;13.284;2023-05-14T13:56:50;6.07;;;4.17;;
12603;SDS011;6367;52.508;13.284;2023-05-14T13:59:16;4.00;;;3.70;;
12603;SDS011;6367;52.508;13.284;2023-05-14T14:01:42;5.10;;;4.30;;
12603;SDS011;6367;52.508;13.284;2023-05-14T14:04:08;4.30;;;3.90;;
12603;SDS011;6367;52.508;13.284;2023-05-14T14:06:34;4.27;;;3.97;;
12603;SDS011;6367;52.508;13.284;2023-05-14T14:09:00;5.93;;;3.90;;
12603;SDS011;6367;52.508;13.284;2023-05-14T14:11:25;6.20;;;3.97;;
12603;SDS011;6367;52.508;13.284;2023-05-14T14:13:51;4.37;;;3.63;;
12603;SDS011;6367;52.508;13.284;2023-05-14T14:16:18;3.57;;;3.13;;
12603;SDS011;6367;52.508;13.284;2023-05-14T14:18:43;4.77;;;3.70;;
12603;SDS011;6367;52.508;13.284;2023-05-14T14:21:09;4.60;;;3.60;;
12603;SDS011;6367;52.508;13.284;2023-05-14T14:23:35;5.23;;;4.50;;
12603;SDS011;6367;52.508;13.284;2023-05-14T14:26:01;3.97;;;3.67;;
12603;SDS011;6367;52.508;13.284;2023-05-14T14:28:27;4.27;;;3.80;;
12603;SDS011;6367;52.508;13.284;2023-05-14T14:30:53;4.80;;;4.30;;
12603;SDS011;6367;52.508;13.284;2023-05-14T14:33:19;4.10;;;3.70;;
12603;SDS011;6367;52.508;13.284;2023-05-14T14:35:44;6.20;;;4.00;;
12603;SDS011;6367;52.508;13.284;2023-05-14T14:38:10;6.50;;;4.40;;
12603;SDS011;6367;52.508;13.284;2023-05-14T14:40:36;4.40;;;4.00;;
12603;SDS011;6367;52.508;13.284;2023-05-14T14:43:02;5.80;;;4.23;;
12603;SDS011;6367;52.508;13.284;2023-05-14T14:45:27;5.60;;;4.10;;
12603;SDS011;6367;52.508;13.284;2023-05-14T14:48:20;4.60;;;4.20;;
12603;SDS011;6367;52.508;13.284;2023-05-14T14:50:49;3.90;;;3.60;;
12603;SDS011;6367;52.508;13.284;2023-05-14T14:53:16;4.13;;;3.73;;
12603;SDS011;6367;52.508;13.284;2023-05-14T14:55:42;4.80;;;3.73;;
12603;SDS011;6367;52.508;13.284;2023-05-14T14:58:08;5.10;;;4.10;;